sensor_id;sensor_type;location;lat;lon;timestamp;P1;durP1;ratioP1;P2;durP2;ratioP2
66143;SDS011;52947;50.842;6.084;2022-08-19T00:01:41;10.30;;;9.15;;
66143;SDS011;52947;50.842;6.084;2022-08-19T00:04:16;13.57;;;9.80;;
66143;SDS011;52947;50.842;6.084;2022-08-19T00:06:46;10.90;;;9.63;;
66143;SDS011;52947;50.842;6.084;2022-08-19T00:09:15;11.35;;;8.80;;
66143;SDS011;52947;50.842;6.084;2022-08-19T00:11:45;12.13;;;8.68;;
66143;SDS011;52947;50.842;6.084;2022-08-19T00:14:13;11.20;;;8.25;;
66143;SDS011;52947;50.842;6.084;2022-08-19T00:16:44;10.93;;;9.18;;
66143;SDS011;52947;50.842;6.084;2022-08-19T00:19:13;15.77;;;12.57;;
66143;SDS011;52947;50.842;6.084;2022-08-19T00:21:43;16.05;;;11.07;;
66143;SDS011;52947;50.842;6.084;2022-08-19T00:24:12;10.75;;;8.60;;
66143;SDS011;52947;50.842;6.084;2022-08-19T00:26:42;10.40;;;9.40;;
66143;SDS011;52947;50.842;6.084;2022-08-19T00:29:12;10.63;;;9.25;;
66143;SDS011;52947;50.842;6.084;2022-08-19T00:31:42;13.07;;;10.23;;
66143;SDS011;52947;50.842;6.084;2022-08-19T00:34:10;12.25;;;9.88;;
66143;SDS011;52947;50.842;6.084;2022-08-19T00:36:40;9.67;;;8.50;;
66143;SDS011;52947;50.842;6.084;2022-08-19T00:39:08;11.90;;;10.70;;
66143;SDS011;52947;50.842;6.084;2022-08-19T00:41:37;9.88;;;8.30;;
66143;SDS011;52947;50.842;6.084;2022-08-19T00:44:06;10.38;;;9.27;;
66143;SDS011;52947;50.842;6.084;2022-08-19T00:46:38;12.10;;;10.07;;
66143;SDS011;52947;50.842;6.084;2022-08-19T00:49:09;9.88;;;8.57;;
66143;SDS011;52947;50.842;6.084;2022-08-19T00:51:43;10.38;;;9.18;;
66143;SDS011;52947;50.842;6.084;2022-08-19T00:54:14;12.48;;;11.18;;
66143;SDS011;52947;50.842;6.084;2022-08-19T00:56:42;8.73;;;7.50;;
66143;SDS011;52947;50.842;6.084;2022-08-19T00:59:12;12.55;;;10.30;;
66143;SDS011;52947;50.842;6.084;2022-08-19T01:02:02;16.08;;;12.38;;
66143;SDS011;52947;50.842;6.084;2022-08-19T01:04:30;14.88;;;13.25;;
66143;SDS011;52947;50.842;6.084;2022-08-19T01:06:59;11.60;;;9.85;;
66143;SDS011;52947;50.842;6.084;2022-08-19T01:09:29;14.60;;;10.75;;
66143;SDS011;52947;50.842;6.084;2022-08-19T01:11:58;13.88;;;12.48;;
66143;SDS011;52947;50.842;6.084;2022-08-19T01:14:26;11.73;;;9.88;;
66143;SDS011;52947;50.842;6.084;2022-08-19T01:16:54;13.80;;;11.02;;
66143;SDS011;52947;50.842;6.084;2022-08-19T01:19:24;17.73;;;10.90;;
66143;SDS011;52947;50.842;6.084;2022-08-19T01:22:11;14.13;;;11.73;;
66143;SDS011;52947;50.842;6.084;2022-08-19T01:24:53;13.70;;;11.10;;
66143;SDS011;52947;50.842;6.084;2022-08-19T01:27:21;11.82;;;10.55;;
66143;SDS011;52947;50.842;6.084;2022-08-19T01:29:50;14.20;;;11.27;;
66143;SDS011;52947;50.842;6.084;2022-08-19T01:32:18;14.15;;;10.98;;
66143;SDS011;52947;50.842;6.084;2022-08-19T01:34:59;9.30;;;8.20;;
66143;SDS011;52947;50.842;6.084;2022-08-19T01:37:29;12.25;;;10.32;;
66143;SDS011;52947;50.842;6.084;2022-08-19T01:39:59;13.10;;;10.88;;
66143;SDS011;52947;50.842;6.084;2022-08-19T01:42:31;10.02;;;8.40;;
66143;SDS011;52947;50.842;6.084;2022-08-19T01:44:59;13.93;;;12.20;;
66143;SDS011;52947;50.842;6.084;2022-08-19T01:47:27;16.38;;;11.40;;
66143;SDS011;52947;50.842;6.084;2022-08-19T01:49:55;11.63;;;9.50;;
66143;SDS011;52947;50.842;6.084;2022-08-19T01:52:25;13.20;;;10.48;;
66143;SDS011;52947;50.842;6.084;2022-08-19T01:54:53;12.23;;;10.70;;
66143;SDS011;52947;50.842;6.084;2022-08-19T01:57:22;15.32;;;11.20;;
66143;SDS011;52947;50.842;6.084;2022-08-19T01:59:50;11.43;;;10.05;;
66143;SDS011;52947;50.842;6.084;2022-08-19T02:02:18;10.03;;;9.03;;
66143;SDS011;52947;50.842;6.084;2022-08-19T02:04:47;11.43;;;8.48;;
66143;SDS011;52947;50.842;6.084;2022-08-19T02:07:15;12.00;;;9.60;;
66143;SDS011;52947;50.842;6.084;2022-08-19T02:09:45;10.43;;;8.50;;
66143;SDS011;52947;50.842;6.084;2022-08-19T02:12:14;11.80;;;10.57;;
66143;SDS011;52947;50.842;6.084;2022-08-19T02:14:43;13.63;;;12.03;;
66143;SDS011;52947;50.842;6.084;2022-08-19T02:19:39;17.08;;;13.90;;
66143;SDS011;52947;50.842;6.084;2022-08-19T02:22:07;18.92;;;16.23;;
66143;SDS011;52947;50.842;6.084;2022-08-19T02:24:35;18.17;;;15.05;;
66143;SDS011;52947;50.842;6.084;2022-08-19T02:27:03;23.33;;;19.60;;
66143;SDS011;52947;50.842;6.084;2022-08-19T02:32:03;13.15;;;11.40;;
66143;SDS011;52947;50.842;6.084;2022-08-19T02:34:31;18.52;;;15.05;;
66143;SDS011;52947;50.842;6.084;2022-08-19T02:36:59;18.55;;;16.55;;
66143;SDS011;52947;50.842;6.084;2022-08-19T02:39:29;21.88;;;18.25;;
66143;SDS011;52947;50.842;6.084;2022-08-19T02:41:56;20.33;;;18.02;;
66143;SDS011;52947;50.842;6.084;2022-08-19T02:44:25;20.75;;;14.93;;
66143;SDS011;52947;50.842;6.084;2022-08-19T02:46:57;22.63;;;18.27;;
66143;SDS011;52947;50.842;6.084;2022-08-19T02:49:26;19.63;;;14.60;;
66143;SDS011;52947;50.842;6.084;2022-08-19T02:51:59;17.48;;;14.23;;
66143;SDS011;52947;50.842;6.084;2022-08-19T02:54:28;14.80;;;12.95;;
66143;SDS011;52947;50.842;6.084;2022-08-19T02:56:56;16.75;;;13.77;;
66143;SDS011;52947;50.842;6.084;2022-08-19T02:59:24;17.42;;;14.48;;
66143;SDS011;52947;50.842;6.084;2022-08-19T03:01:52;13.38;;;11.75;;
66143;SDS011;52947;50.842;6.084;2022-08-19T03:04:20;17.45;;;14.13;;
66143;SDS011;52947;50.842;6.084;2022-08-19T03:06:50;12.23;;;7.57;;
66143;SDS011;52947;50.842;6.084;2022-08-19T03:09:19;17.02;;;13.65;;
66143;SDS011;52947;50.842;6.084;2022-08-19T03:11:47;18.88;;;14.52;;
66143;SDS011;52947;50.842;6.084;2022-08-19T03:14:18;13.35;;;10.68;;
66143;SDS011;52947;50.842;6.084;2022-08-19T03:16:47;13.32;;;10.98;;
66143;SDS011;52947;50.842;6.084;2022-08-19T03:19:19;14.40;;;11.38;;
66143;SDS011;52947;50.842;6.084;2022-08-19T03:21:49;12.18;;;10.88;;
66143;SDS011;52947;50.842;6.084;2022-08-19T03:24:18;15.55;;;13.13;;
66143;SDS011;52947;50.842;6.084;2022-08-19T03:26:48;18.73;;;14.73;;
66143;SDS011;52947;50.842;6.084;2022-08-19T03:29:18;14.82;;;11.95;;
66143;SDS011;52947;50.842;6.084;2022-08-19T03:31:57;17.23;;;13.10;;
66143;SDS011;52947;50.842;6.084;2022-08-19T03:34:28;18.02;;;14.02;;
66143;SDS011;52947;50.842;6.084;2022-08-19T03:36:59;18.38;;;15.38;;
66143;SDS011;52947;50.842;6.084;2022-08-19T03:39:32;23.45;;;18.15;;
66143;SDS011;52947;50.842;6.084;2022-08-19T03:42:00;22.25;;;18.42;;
66143;SDS011;52947;50.842;6.084;2022-08-19T03:44:48;23.30;;;20.27;;
66143;SDS011;52947;50.842;6.084;2022-08-19T03:47:16;26.83;;;20.10;;
66143;SDS011;52947;50.842;6.084;2022-08-19T03:49:44;24.70;;;18.95;;
66143;SDS011;52947;50.842;6.084;2022-08-19T03:52:14;26.70;;;19.85;;
66143;SDS011;52947;50.842;6.084;2022-08-19T03:57:09;22.85;;;18.67;;
66143;SDS011;52947;50.842;6.084;2022-08-19T03:59:37;21.38;;;17.85;;
66143;SDS011;52947;50.842;6.084;2022-08-19T04:02:07;15.25;;;12.75;;
66143;SDS011;52947;50.842;6.084;2022-08-19T04:04:37;29.25;;;20.23;;
66143;SDS011;52947;50.842;6.084;2022-08-19T04:07:06;24.05;;;20.40;;
66143;SDS011;52947;50.842;6.084;2022-08-19T04:09:37;24.42;;;17.83;;
66143;SDS011;52947;50.842;6.084;2022-08-19T04:12:05;29.63;;;21.35;;
66143;SDS011;52947;50.842;6.084;2022-08-19T04:14:34;21.38;;;16.95;;
66143;SDS011;52947;50.842;6.084;2022-08-19T04:17:02;23.63;;;17.90;;
66143;SDS011;52947;50.842;6.084;2022-08-19T04:19:32;21.50;;;16.77;;
66143;SDS011;52947;50.842;6.084;2022-08-19T04:22:04;22.90;;;16.92;;
66143;SDS011;52947;50.842;6.084;2022-08-19T04:24:35;27.27;;;16.45;;
66143;SDS011;52947;50.842;6.084;2022-08-19T04:27:05;38.97;;;22.42;;
66143;SDS011;52947;50.842;6.084;2022-08-19T04:29:33;31.80;;;20.55;;
66143;SDS011;52947;50.842;6.084;2022-08-19T04:32:01;23.55;;;17.73;;
66143;SDS011;52947;50.842;6.084;2022-08-19T04:34:35;25.02;;;16.52;;
66143;SDS011;52947;50.842;6.084;2022-08-19T04:37:24;26.70;;;17.77;;
66143;SDS011;52947;50.842;6.084;2022-08-19T04:40:02;27.73;;;20.98;;
66143;SDS011;52947;50.842;6.084;2022-08-19T04:42:51;30.00;;;22.80;;
66143;SDS011;52947;50.842;6.084;2022-08-19T04:47:48;37.78;;;22.75;;
66143;SDS011;52947;50.842;6.084;2022-08-19T04:50:39;33.10;;;20.77;;
66143;SDS011;52947;50.842;6.084;2022-08-19T04:53:08;37.15;;;25.73;;
66143;SDS011;52947;50.842;6.084;2022-08-19T04:55:39;34.13;;;22.20;;
66143;SDS011;52947;50.842;6.084;2022-08-19T04:58:08;38.38;;;23.63;;
66143;SDS011;52947;50.842;6.084;2022-08-19T05:00:37;36.58;;;24.67;;
66143;SDS011;52947;50.842;6.084;2022-08-19T05:03:06;37.53;;;23.42;;
66143;SDS011;52947;50.842;6.084;2022-08-19T05:05:37;35.65;;;20.88;;
66143;SDS011;52947;50.842;6.084;2022-08-19T05:08:10;37.65;;;23.45;;
66143;SDS011;52947;50.842;6.084;2022-08-19T05:10:42;28.65;;;17.75;;
66143;SDS011;52947;50.842;6.084;2022-08-19T05:13:10;38.47;;;25.15;;
66143;SDS011;52947;50.842;6.084;2022-08-19T05:15:38;38.88;;;24.30;;
66143;SDS011;52947;50.842;6.084;2022-08-19T05:18:06;31.25;;;19.88;;
66143;SDS011;52947;50.842;6.084;2022-08-19T05:20:52;42.55;;;28.17;;
66143;SDS011;52947;50.842;6.084;2022-08-19T05:23:37;41.10;;;26.85;;
66143;SDS011;52947;50.842;6.084;2022-08-19T05:26:06;46.67;;;30.17;;
66143;SDS011;52947;50.842;6.084;2022-08-19T05:28:36;42.00;;;29.40;;
66143;SDS011;52947;50.842;6.084;2022-08-19T05:31:04;46.65;;;29.20;;
66143;SDS011;52947;50.842;6.084;2022-08-19T05:33:32;31.30;;;21.60;;
66143;SDS011;52947;50.842;6.084;2022-08-19T05:36:00;45.13;;;30.15;;
66143;SDS011;52947;50.842;6.084;2022-08-19T05:38:29;45.45;;;30.50;;
66143;SDS011;52947;50.842;6.084;2022-08-19T05:40:57;43.88;;;26.88;;
66143;SDS011;52947;50.842;6.084;2022-08-19T05:43:26;47.92;;;28.40;;
66143;SDS011;52947;50.842;6.084;2022-08-19T05:48:21;42.45;;;27.05;;
66143;SDS011;52947;50.842;6.084;2022-08-19T05:50:49;36.17;;;23.80;;
66143;SDS011;52947;50.842;6.084;2022-08-19T05:53:18;38.28;;;25.80;;
66143;SDS011;52947;50.842;6.084;2022-08-19T05:55:45;41.53;;;28.03;;
66143;SDS011;52947;50.842;6.084;2022-08-19T05:58:13;37.38;;;25.52;;
66143;SDS011;52947;50.842;6.084;2022-08-19T06:00:43;37.53;;;25.70;;
66143;SDS011;52947;50.842;6.084;2022-08-19T06:03:11;31.80;;;23.75;;
66143;SDS011;52947;50.842;6.084;2022-08-19T06:05:40;32.33;;;22.50;;
66143;SDS011;52947;50.842;6.084;2022-08-19T06:08:17;36.65;;;25.90;;
66143;SDS011;52947;50.842;6.084;2022-08-19T06:10:48;34.67;;;23.73;;
66143;SDS011;52947;50.842;6.084;2022-08-19T06:13:15;33.45;;;22.50;;
66143;SDS011;52947;50.842;6.084;2022-08-19T06:15:47;33.45;;;21.73;;
66143;SDS011;52947;50.842;6.084;2022-08-19T06:18:15;27.52;;;20.63;;
66143;SDS011;52947;50.842;6.084;2022-08-19T06:20:43;36.08;;;25.45;;
66143;SDS011;52947;50.842;6.084;2022-08-19T06:23:21;30.20;;;20.45;;
66143;SDS011;52947;50.842;6.084;2022-08-19T06:25:49;31.80;;;22.30;;
66143;SDS011;52947;50.842;6.084;2022-08-19T06:28:17;28.65;;;18.92;;
66143;SDS011;52947;50.842;6.084;2022-08-19T06:30:47;27.67;;;20.33;;
66143;SDS011;52947;50.842;6.084;2022-08-19T06:33:15;22.50;;;16.77;;
66143;SDS011;52947;50.842;6.084;2022-08-19T06:35:44;19.13;;;15.18;;
66143;SDS011;52947;50.842;6.084;2022-08-19T06:38:12;26.37;;;20.00;;
66143;SDS011;52947;50.842;6.084;2022-08-19T06:40:39;26.10;;;19.35;;
66143;SDS011;52947;50.842;6.084;2022-08-19T06:43:12;33.97;;;19.42;;
66143;SDS011;52947;50.842;6.084;2022-08-19T06:45:43;24.98;;;17.00;;
66143;SDS011;52947;50.842;6.084;2022-08-19T06:48:14;25.95;;;17.17;;
66143;SDS011;52947;50.842;6.084;2022-08-19T06:50:43;26.50;;;18.40;;
66143;SDS011;52947;50.842;6.084;2022-08-19T06:53:11;25.27;;;18.65;;
66143;SDS011;52947;50.842;6.084;2022-08-19T06:55:40;26.35;;;18.27;;
66143;SDS011;52947;50.842;6.084;2022-08-19T06:58:07;23.90;;;17.95;;
66143;SDS011;52947;50.842;6.084;2022-08-19T07:00:35;23.73;;;16.30;;
66143;SDS011;52947;50.842;6.084;2022-08-19T07:03:04;26.55;;;19.20;;
66143;SDS011;52947;50.842;6.084;2022-08-19T07:05:39;26.85;;;18.05;;
66143;SDS011;52947;50.842;6.084;2022-08-19T07:08:11;25.85;;;17.67;;
66143;SDS011;52947;50.842;6.084;2022-08-19T07:10:42;25.40;;;18.33;;
66143;SDS011;52947;50.842;6.084;2022-08-19T07:13:11;29.60;;;21.85;;
66143;SDS011;52947;50.842;6.084;2022-08-19T07:15:39;27.23;;;20.35;;
66143;SDS011;52947;50.842;6.084;2022-08-19T07:18:08;33.35;;;24.15;;
66143;SDS011;52947;50.842;6.084;2022-08-19T07:20:38;33.28;;;23.30;;
66143;SDS011;52947;50.842;6.084;2022-08-19T07:23:07;35.97;;;23.20;;
66143;SDS011;52947;50.842;6.084;2022-08-19T07:25:41;33.08;;;23.08;;
66143;SDS011;52947;50.842;6.084;2022-08-19T07:28:18;37.72;;;26.70;;
66143;SDS011;52947;50.842;6.084;2022-08-19T07:30:50;34.70;;;25.58;;
66143;SDS011;52947;50.842;6.084;2022-08-19T07:33:18;27.40;;;20.63;;
66143;SDS011;52947;50.842;6.084;2022-08-19T07:35:48;34.85;;;24.88;;
66143;SDS011;52947;50.842;6.084;2022-08-19T07:38:17;30.73;;;21.05;;
66143;SDS011;52947;50.842;6.084;2022-08-19T07:40:45;35.90;;;22.03;;
66143;SDS011;52947;50.842;6.084;2022-08-19T07:43:13;28.70;;;21.10;;
66143;SDS011;52947;50.842;6.084;2022-08-19T07:45:43;27.13;;;20.67;;
66143;SDS011;52947;50.842;6.084;2022-08-19T07:48:13;29.02;;;20.50;;
66143;SDS011;52947;50.842;6.084;2022-08-19T07:50:41;21.00;;;15.73;;
66143;SDS011;52947;50.842;6.084;2022-08-19T07:53:11;25.55;;;18.80;;
66143;SDS011;52947;50.842;6.084;2022-08-19T07:55:39;25.77;;;17.98;;
66143;SDS011;52947;50.842;6.084;2022-08-19T07:58:10;24.75;;;17.35;;
66143;SDS011;52947;50.842;6.084;2022-08-19T08:00:39;33.00;;;18.30;;
66143;SDS011;52947;50.842;6.084;2022-08-19T08:03:08;23.02;;;16.13;;
66143;SDS011;52947;50.842;6.084;2022-08-19T08:05:36;23.45;;;17.65;;
66143;SDS011;52947;50.842;6.084;2022-08-19T08:08:23;27.88;;;18.70;;
66143;SDS011;52947;50.842;6.084;2022-08-19T08:11:14;23.15;;;17.30;;
66143;SDS011;52947;50.842;6.084;2022-08-19T08:13:46;27.52;;;17.48;;
66143;SDS011;52947;50.842;6.084;2022-08-19T08:16:29;24.10;;;16.80;;
66143;SDS011;52947;50.842;6.084;2022-08-19T08:19:00;20.20;;;15.82;;
66143;SDS011;52947;50.842;6.084;2022-08-19T08:21:32;21.00;;;15.52;;
66143;SDS011;52947;50.842;6.084;2022-08-19T08:26:30;26.63;;;15.48;;
66143;SDS011;52947;50.842;6.084;2022-08-19T08:28:59;22.17;;;13.60;;
66143;SDS011;52947;50.842;6.084;2022-08-19T08:31:37;20.83;;;14.02;;
66143;SDS011;52947;50.842;6.084;2022-08-19T08:34:06;19.50;;;14.75;;
66143;SDS011;52947;50.842;6.084;2022-08-19T08:36:36;24.45;;;14.80;;
66143;SDS011;52947;50.842;6.084;2022-08-19T08:39:09;18.50;;;13.75;;
66143;SDS011;52947;50.842;6.084;2022-08-19T08:41:40;20.25;;;14.98;;
66143;SDS011;52947;50.842;6.084;2022-08-19T08:44:15;17.13;;;14.48;;
66143;SDS011;52947;50.842;6.084;2022-08-19T08:46:48;17.15;;;13.43;;
66143;SDS011;52947;50.842;6.084;2022-08-19T08:49:26;17.35;;;12.07;;
66143;SDS011;52947;50.842;6.084;2022-08-19T08:51:59;16.80;;;11.88;;
66143;SDS011;52947;50.842;6.084;2022-08-19T08:54:35;19.42;;;13.20;;
66143;SDS011;52947;50.842;6.084;2022-08-19T08:57:21;16.27;;;13.07;;
66143;SDS011;52947;50.842;6.084;2022-08-19T08:59:59;18.20;;;13.30;;
66143;SDS011;52947;50.842;6.084;2022-08-19T09:02:31;17.75;;;12.63;;
66143;SDS011;52947;50.842;6.084;2022-08-19T09:04:59;15.65;;;11.57;;
66143;SDS011;52947;50.842;6.084;2022-08-19T09:10:14;16.77;;;11.68;;
66143;SDS011;52947;50.842;6.084;2022-08-19T09:12:53;15.13;;;11.48;;
66143;SDS011;52947;50.842;6.084;2022-08-19T09:15:36;18.13;;;14.10;;
66143;SDS011;52947;50.842;6.084;2022-08-19T09:18:08;17.40;;;13.20;;
66143;SDS011;52947;50.842;6.084;2022-08-19T09:20:45;16.17;;;11.93;;
66143;SDS011;52947;50.842;6.084;2022-08-19T09:23:14;18.65;;;13.88;;
66143;SDS011;52947;50.842;6.084;2022-08-19T09:25:44;19.55;;;13.93;;
66143;SDS011;52947;50.842;6.084;2022-08-19T09:28:12;21.27;;;14.77;;
66143;SDS011;52947;50.842;6.084;2022-08-19T09:30:52;23.45;;;15.68;;
66143;SDS011;52947;50.842;6.084;2022-08-19T09:33:20;25.98;;;16.48;;
66143;SDS011;52947;50.842;6.084;2022-08-19T09:35:48;26.35;;;16.92;;
66143;SDS011;52947;50.842;6.084;2022-08-19T09:38:19;23.60;;;17.33;;
66143;SDS011;52947;50.842;6.084;2022-08-19T09:40:48;26.50;;;19.42;;
66143;SDS011;52947;50.842;6.084;2022-08-19T09:43:16;26.95;;;18.23;;
66143;SDS011;52947;50.842;6.084;2022-08-19T09:46:08;26.48;;;19.02;;
66143;SDS011;52947;50.842;6.084;2022-08-19T09:48:40;22.95;;;17.83;;
66143;SDS011;52947;50.842;6.084;2022-08-19T09:51:09;24.90;;;18.27;;
66143;SDS011;52947;50.842;6.084;2022-08-19T09:53:42;26.73;;;16.52;;
66143;SDS011;52947;50.842;6.084;2022-08-19T09:56:12;29.17;;;18.83;;
66143;SDS011;52947;50.842;6.084;2022-08-19T09:58:44;22.40;;;16.55;;
66143;SDS011;52947;50.842;6.084;2022-08-19T10:01:15;24.88;;;17.50;;
66143;SDS011;52947;50.842;6.084;2022-08-19T10:03:46;21.02;;;15.82;;
66143;SDS011;52947;50.842;6.084;2022-08-19T10:06:18;23.98;;;15.77;;
66143;SDS011;52947;50.842;6.084;2022-08-19T10:09:07;24.58;;;16.42;;
66143;SDS011;52947;50.842;6.084;2022-08-19T10:11:40;21.70;;;14.80;;
66143;SDS011;52947;50.842;6.084;2022-08-19T10:14:20;25.48;;;17.33;;
66143;SDS011;52947;50.842;6.084;2022-08-19T10:16:50;26.50;;;17.25;;
66143;SDS011;52947;50.842;6.084;2022-08-19T10:19:18;21.73;;;16.30;;
66143;SDS011;52947;50.842;6.084;2022-08-19T10:21:51;21.67;;;15.25;;
66143;SDS011;52947;50.842;6.084;2022-08-19T10:24:25;19.33;;;13.98;;
66143;SDS011;52947;50.842;6.084;2022-08-19T10:26:55;22.88;;;15.10;;
66143;SDS011;52947;50.842;6.084;2022-08-19T10:29:25;24.40;;;14.32;;
66143;SDS011;52947;50.842;6.084;2022-08-19T10:31:58;21.27;;;14.45;;
66143;SDS011;52947;50.842;6.084;2022-08-19T10:34:29;23.88;;;15.65;;
66143;SDS011;52947;50.842;6.084;2022-08-19T10:36:58;26.70;;;16.40;;
66143;SDS011;52947;50.842;6.084;2022-08-19T10:39:27;26.33;;;15.50;;
66143;SDS011;52947;50.842;6.084;2022-08-19T10:42:08;24.63;;;17.65;;
66143;SDS011;52947;50.842;6.084;2022-08-19T10:44:36;20.95;;;16.38;;
66143;SDS011;52947;50.842;6.084;2022-08-19T10:47:04;27.42;;;17.95;;
66143;SDS011;52947;50.842;6.084;2022-08-19T10:49:50;25.90;;;17.35;;
66143;SDS011;52947;50.842;6.084;2022-08-19T10:52:37;27.60;;;19.02;;
66143;SDS011;52947;50.842;6.084;2022-08-19T10:55:16;27.77;;;18.27;;
66143;SDS011;52947;50.842;6.084;2022-08-19T10:58:06;25.08;;;17.38;;
66143;SDS011;52947;50.842;6.084;2022-08-19T11:00:38;24.80;;;17.70;;
66143;SDS011;52947;50.842;6.084;2022-08-19T11:03:08;24.25;;;17.35;;
66143;SDS011;52947;50.842;6.084;2022-08-19T11:05:36;25.75;;;17.33;;
66143;SDS011;52947;50.842;6.084;2022-08-19T11:08:06;20.77;;;16.80;;
66143;SDS011;52947;50.842;6.084;2022-08-19T11:10:50;21.25;;;16.95;;
66143;SDS011;52947;50.842;6.084;2022-08-19T11:13:26;22.38;;;16.73;;
66143;SDS011;52947;50.842;6.084;2022-08-19T11:15:58;25.77;;;18.13;;
66143;SDS011;52947;50.842;6.084;2022-08-19T11:18:33;24.37;;;17.80;;
66143;SDS011;52947;50.842;6.084;2022-08-19T11:21:05;24.20;;;17.15;;
66143;SDS011;52947;50.842;6.084;2022-08-19T11:23:34;20.92;;;16.30;;
66143;SDS011;52947;50.842;6.084;2022-08-19T11:26:02;23.90;;;16.17;;
66143;SDS011;52947;50.842;6.084;2022-08-19T11:28:32;24.05;;;17.27;;
66143;SDS011;52947;50.842;6.084;2022-08-19T11:31:02;21.85;;;16.13;;
66143;SDS011;52947;50.842;6.084;2022-08-19T11:33:30;24.17;;;16.45;;
66143;SDS011;52947;50.842;6.084;2022-08-19T11:35:59;27.08;;;18.35;;
66143;SDS011;52947;50.842;6.084;2022-08-19T11:38:27;23.88;;;16.52;;
66143;SDS011;52947;50.842;6.084;2022-08-19T11:40:56;25.10;;;16.45;;
66143;SDS011;52947;50.842;6.084;2022-08-19T11:43:24;20.65;;;13.95;;
66143;SDS011;52947;50.842;6.084;2022-08-19T11:45:54;18.85;;;13.63;;
66143;SDS011;52947;50.842;6.084;2022-08-19T11:48:23;22.45;;;15.48;;
66143;SDS011;52947;50.842;6.084;2022-08-19T11:50:52;22.08;;;16.42;;
66143;SDS011;52947;50.842;6.084;2022-08-19T11:53:21;21.85;;;14.05;;
66143;SDS011;52947;50.842;6.084;2022-08-19T11:55:52;16.27;;;10.52;;
66143;SDS011;52947;50.842;6.084;2022-08-19T11:58:22;16.83;;;11.50;;
66143;SDS011;52947;50.842;6.084;2022-08-19T12:00:51;17.67;;;11.18;;
66143;SDS011;52947;50.842;6.084;2022-08-19T12:03:20;13.50;;;9.23;;
66143;SDS011;52947;50.842;6.084;2022-08-19T12:05:49;13.20;;;9.25;;
66143;SDS011;52947;50.842;6.084;2022-08-19T12:08:17;14.02;;;9.15;;
66143;SDS011;52947;50.842;6.084;2022-08-19T12:10:46;14.68;;;9.20;;
66143;SDS011;52947;50.842;6.084;2022-08-19T12:13:14;20.73;;;9.50;;
66143;SDS011;52947;50.842;6.084;2022-08-19T12:15:45;15.27;;;8.85;;
66143;SDS011;52947;50.842;6.084;2022-08-19T12:18:14;13.10;;;7.85;;
66143;SDS011;52947;50.842;6.084;2022-08-19T12:20:43;12.50;;;6.93;;
66143;SDS011;52947;50.842;6.084;2022-08-19T12:23:12;11.98;;;6.43;;
66143;SDS011;52947;50.842;6.084;2022-08-19T12:25:43;8.02;;;5.47;;
66143;SDS011;52947;50.842;6.084;2022-08-19T12:28:14;10.10;;;5.13;;
66143;SDS011;52947;50.842;6.084;2022-08-19T12:30:42;6.55;;;4.25;;
66143;SDS011;52947;50.842;6.084;2022-08-19T12:33:10;7.88;;;4.03;;
66143;SDS011;52947;50.842;6.084;2022-08-19T12:35:40;6.97;;;3.90;;
66143;SDS011;52947;50.842;6.084;2022-08-19T12:38:12;6.28;;;3.97;;
66143;SDS011;52947;50.842;6.084;2022-08-19T12:40:41;11.60;;;4.65;;
66143;SDS011;52947;50.842;6.084;2022-08-19T12:43:13;11.75;;;4.78;;
66143;SDS011;52947;50.842;6.084;2022-08-19T12:45:42;7.68;;;4.55;;
66143;SDS011;52947;50.842;6.084;2022-08-19T12:48:12;6.75;;;4.25;;
66143;SDS011;52947;50.842;6.084;2022-08-19T12:51:00;7.45;;;3.67;;
66143;SDS011;52947;50.842;6.084;2022-08-19T12:55:59;5.05;;;3.38;;
66143;SDS011;52947;50.842;6.084;2022-08-19T12:58:27;13.32;;;3.65;;
66143;SDS011;52947;50.842;6.084;2022-08-19T13:00:56;6.35;;;3.40;;
66143;SDS011;52947;50.842;6.084;2022-08-19T13:03:24;7.28;;;2.95;;
66143;SDS011;52947;50.842;6.084;2022-08-19T13:05:55;6.53;;;3.30;;
66143;SDS011;52947;50.842;6.084;2022-08-19T13:08:23;6.70;;;2.90;;
66143;SDS011;52947;50.842;6.084;2022-08-19T13:10:53;5.65;;;3.05;;
66143;SDS011;52947;50.842;6.084;2022-08-19T13:13:21;6.85;;;3.00;;
66143;SDS011;52947;50.842;6.084;2022-08-19T13:15:51;8.13;;;3.17;;
66143;SDS011;52947;50.842;6.084;2022-08-19T13:18:19;5.33;;;2.67;;
66143;SDS011;52947;50.842;6.084;2022-08-19T13:20:48;5.88;;;3.05;;
66143;SDS011;52947;50.842;6.084;2022-08-19T13:23:18;4.00;;;2.60;;
66143;SDS011;52947;50.842;6.084;2022-08-19T13:25:56;8.00;;;2.83;;
66143;SDS011;52947;50.842;6.084;2022-08-19T13:28:25;6.72;;;2.90;;
66143;SDS011;52947;50.842;6.084;2022-08-19T13:31:14;4.75;;;2.58;;
66143;SDS011;52947;50.842;6.084;2022-08-19T13:34:00;4.07;;;2.30;;
66143;SDS011;52947;50.842;6.084;2022-08-19T13:36:28;4.30;;;2.40;;
66143;SDS011;52947;50.842;6.084;2022-08-19T13:38:56;10.45;;;2.65;;
66143;SDS011;52947;50.842;6.084;2022-08-19T13:41:26;3.67;;;2.00;;
66143;SDS011;52947;50.842;6.084;2022-08-19T13:43:54;3.33;;;2.28;;
66143;SDS011;52947;50.842;6.084;2022-08-19T13:46:22;8.80;;;3.08;;
66143;SDS011;52947;50.842;6.084;2022-08-19T13:48:50;7.82;;;2.85;;
66143;SDS011;52947;50.842;6.084;2022-08-19T13:51:18;4.70;;;2.17;;
66143;SDS011;52947;50.842;6.084;2022-08-19T13:53:46;2.47;;;1.67;;
66143;SDS011;52947;50.842;6.084;2022-08-19T13:56:15;5.63;;;2.20;;
66143;SDS011;52947;50.842;6.084;2022-08-19T13:58:52;3.42;;;1.92;;
66143;SDS011;52947;50.842;6.084;2022-08-19T14:01:24;3.78;;;2.50;;
66143;SDS011;52947;50.842;6.084;2022-08-19T14:03:52;2.83;;;1.92;;
66143;SDS011;52947;50.842;6.084;2022-08-19T14:06:20;6.73;;;2.23;;
66143;SDS011;52947;50.842;6.084;2022-08-19T14:08:48;4.93;;;2.03;;
66143;SDS011;52947;50.842;6.084;2022-08-19T14:11:16;6.10;;;2.40;;
66143;SDS011;52947;50.842;6.084;2022-08-19T14:13:44;4.20;;;2.23;;
66143;SDS011;52947;50.842;6.084;2022-08-19T14:16:13;2.25;;;2.05;;
66143;SDS011;52947;50.842;6.084;2022-08-19T14:18:42;6.22;;;1.83;;
66143;SDS011;52947;50.842;6.084;2022-08-19T14:21:14;3.88;;;1.92;;
66143;SDS011;52947;50.842;6.084;2022-08-19T14:23:43;3.13;;;2.15;;
66143;SDS011;52947;50.842;6.084;2022-08-19T14:26:12;2.63;;;1.80;;
66143;SDS011;52947;50.842;6.084;2022-08-19T14:28:42;4.68;;;2.00;;
66143;SDS011;52947;50.842;6.084;2022-08-19T14:31:10;3.33;;;2.10;;
66143;SDS011;52947;50.842;6.084;2022-08-19T14:33:44;3.85;;;2.30;;
66143;SDS011;52947;50.842;6.084;2022-08-19T14:36:12;4.22;;;2.13;;
66143;SDS011;52947;50.842;6.084;2022-08-19T14:38:40;4.47;;;2.53;;
66143;SDS011;52947;50.842;6.084;2022-08-19T14:41:10;6.50;;;2.90;;
66143;SDS011;52947;50.842;6.084;2022-08-19T14:43:40;4.07;;;2.88;;
66143;SDS011;52947;50.842;6.084;2022-08-19T14:46:08;4.57;;;2.70;;
66143;SDS011;52947;50.842;6.084;2022-08-19T14:48:36;7.53;;;3.20;;
66143;SDS011;52947;50.842;6.084;2022-08-19T14:51:08;4.68;;;2.83;;
66143;SDS011;52947;50.842;6.084;2022-08-19T14:53:36;5.68;;;2.78;;
66143;SDS011;52947;50.842;6.084;2022-08-19T14:56:08;5.90;;;2.80;;
66143;SDS011;52947;50.842;6.084;2022-08-19T14:58:36;4.57;;;2.50;;
66143;SDS011;52947;50.842;6.084;2022-08-19T15:01:07;4.75;;;2.55;;
66143;SDS011;52947;50.842;6.084;2022-08-19T15:06:04;9.20;;;2.47;;
66143;SDS011;52947;50.842;6.084;2022-08-19T15:08:34;5.55;;;2.53;;
66143;SDS011;52947;50.842;6.084;2022-08-19T15:11:07;3.80;;;2.45;;
66143;SDS011;52947;50.842;6.084;2022-08-19T15:13:35;3.83;;;2.40;;